Time;durP1;ratioP1;P1;durP2;ratioP2;P2;SDS_P1;SDS_P2;PMS_P1;PMS_P2;Temp;Humidity;BMP_temperature;BMP_pressure;BME280_temperature;BME280_humidity;BME280_pressure;Samples;Min_cycle;Max_cycle;Signal;HPM_P1;HPM_P2
2022/03/02 00:00:37;;;;;;;13.98;6.10;;;;;;;-2.08;60.88;93366.22;4992058;28;20042;-89
2022/03/02 00:03:08;;;;;;;12.73;5.95;;;;;;;-2.36;60.52;93325.19;4994890;28;20081;-88
2022/03/02 00:06:04;;;;;;;12.82;6.57;;;;;;;-2.23;60.31;93337.31;4995008;28;20069;-88
2022/03/02 00:08:46;;;;;;;;;;;;;;;;;;;;;
2022/03/02 00:11:30;;;;;;;14.50;6.13;;;;;;;-2.20;60.35;93348.00;4995590;28;20395;-89
2022/03/02 00:14:09;;;;;;;15.70;6.65;;;;;;;-2.31;60.75;93328.78;4980318;28;20038;-88
2022/03/02 00:16:58;;;;;;;13.35;6.65;;;;;;;-2.31;60.24;93338.25;4996691;28;20034;-88
2022/03/02 00:19:45;;;;;;;12.52;6.53;;;;;;;-2.20;60.48;93350.56;5012986;28;20134;-89
2022/03/02 00:25:17;;;;;;;13.48;5.45;;;;;;;-2.10;60.16;93360.50;5014093;28;20054;-89
2022/03/02 00:28:19;;;;;;;13.57;6.28;;;;;;;-2.28;59.93;93347.34;5023371;28;20042;-89
2022/03/02 00:34:03;;;;;;;20.40;6.38;;;;;;;-2.38;60.02;93330.50;5011009;28;20081;-90
2022/03/02 00:36:57;;;;;;;13.13;5.95;;;;;;;-2.12;59.99;93367.56;4995216;28;20068;-89
2022/03/02 00:39:37;;;;;;;12.85;6.32;;;;;;;-2.01;60.19;93390.16;5009709;28;20604;-90
2022/03/02 00:42:24;;;;;;;;;;;;;;;;;;;;;
2022/03/02 00:45:27;;;;;;;12.80;6.15;;;;;;;-2.26;60.20;93361.56;4993656;28;20030;-88
2022/03/02 00:48:13;;;;;;;;;;;;;;;;;;;;;
2022/03/02 00:51:07;;;;;;;;;;;;;;;;;;;;;
2022/03/02 00:53:38;;;;;;;16.40;6.63;;;;;;;-2.53;60.08;93319.53;4993428;28;20037;-88
2022/03/02 00:56:41;;;;;;;18.98;6.15;;;;;;;-2.53;60.14;93320.31;5006406;28;20047;-89
2022/03/02 00:59:36;;;;;;;16.35;6.18;;;;;;;-2.53;60.16;93325.47;5006124;28;20377;-89
2022/03/02 01:02:09;;;;;;;14.40;7.03;;;;;;;-2.54;60.19;93318.75;4993094;28;20034;-88
2022/03/02 01:04:58;;;;;;;;;;;;;;;;;;;;;
2022/03/02 01:07:34;;;;;;;13.18;6.10;;;;;;;-2.50;59.68;93324.28;4993434;28;20030;-88
2022/03/02 01:10:44;;;;;;;11.77;5.75;;;;;;;-2.57;59.87;93323.44;4992861;28;20112;-88
2022/03/02 01:13:50;;;;;;;11.15;5.95;;;;;;;-2.31;60.30;93354.44;4994156;28;20045;-89
2022/03/02 01:16:38;;;;;;;;;;;;;;;;;;;;;
2022/03/02 01:19:56;;;;;;;13.02;6.22;;;;;;;-2.59;59.46;93320.28;4994352;28;20052;-89
2022/03/02 01:22:32;;;;;;;14.15;5.28;;;;;;;-2.68;60.04;93313.69;4992698;28;20448;-89
2022/03/02 01:25:44;;;;;;;13.02;5.65;;;;;;;-2.43;60.17;93350.78;4992916;28;20030;-89
2022/03/02 01:28:49;;;;;;;16.08;6.13;;;;;;;-2.77;58.81;93303.59;4993629;28;20043;-89
2022/03/02 01:32:05;;;;;;;;;;;;;;;;;;;;;
2022/03/02 01:35:08;;;;;;;12.48;5.43;;;;;;;-2.74;57.74;93303.22;4992770;28;20045;-89
2022/03/02 01:38:12;;;;;;;14.43;5.40;;;;;;;-2.63;58.34;93293.44;4992726;28;20032;-89
2022/03/02 01:41:08;;;;;;;;;;;;;;;;;;;;;
2022/03/02 01:44:05;;;;;;;10.25;5.40;;;;;;;-2.90;59.49;93282.97;4975316;28;20031;-88
2022/03/02 01:47:12;;;;;;;16.88;5.80;;;;;;;-2.80;59.12;93310.84;5007753;28;20035;-91
2022/03/02 01:50:01;;;;;;;9.60;5.90;;;;;;;-3.00;59.39;93285.03;4978889;28;20038;-89
2022/03/02 01:52:35;;;;;;;11.77;5.18;;;;;;;-2.92;59.16;93300.31;4976117;28;20113;-88
2022/03/02 01:55:22;;;;;;;10.63;5.28;;;;;;;-3.05;59.07;93272.78;4976917;28;20038;-89
2022/03/02 01:58:18;;;;;;;;;;;;;;;;;;;;;
2022/03/02 02:00:58;;;;;;;11.15;5.45;;;;;;;-3.02;59.10;93274.19;4991371;28;20117;-88
2022/03/02 02:03:32;;;;;;;12.75;5.93;;;;;;;-2.83;58.83;93301.75;4976382;28;20141;-90
2022/03/02 02:06:14;;;;;;;;;;;;;;;;;;;;;
2022/03/02 02:08:46;;;;;;;12.45;5.72;;;;;;;-2.94;58.81;93276.63;4991319;28;20054;-91
2022/03/02 02:11:30;;;;;;;12.40;5.50;;;;;;;-3.11;58.52;93244.56;4991325;28;20056;-89
2022/03/02 02:14:25;;;;;;;;;;;;;;;;;;;;;
2022/03/02 02:17:22;;;;;;;14.60;6.00;;;;;;;-3.17;59.20;93244.31;4992290;28;20093;-89
2022/03/02 02:20:11;;;;;;;11.70;5.30;;;;;;;-3.02;58.84;93264.72;4991316;28;20046;-89
2022/03/02 02:22:47;;;;;;;12.05;5.78;;;;;;;-3.18;59.28;93247.06;4975232;28;20042;-88
2022/03/02 02:25:29;;;;;;;11.65;5.65;;;;;;;-3.19;58.42;93238.59;4991495;28;20039;-89
2022/03/02 02:28:31;;;;;;;12.73;5.63;;;;;;;-3.02;58.88;93266.50;4978062;28;20086;-88
2022/03/02 02:31:20;;;;;;;14.50;5.78;;;;;;;-2.89;58.99;93294.00;4991462;28;20085;-89
2022/03/02 02:34:06;;;;;;;;;;;;;;;;;;;;;
2022/03/02 02:36:49;;;;;;;12.23;5.88;;;;;;;-3.19;59.15;93233.47;4995582;28;20086;-91
2022/03/02 02:39:24;;;;;;;13.20;5.95;;;;;;;-3.18;59.50;93235.03;4995509;28;20399;-89
2022/03/02 02:42:20;;;;;;;;;;;;;;;;;;;;;
2022/03/02 02:45:24;;;;;;;;;;;;;;;;;;;;;
2022/03/02 02:48:04;;;;;;;12.60;6.28;;;;;;;-3.20;60.83;93229.34;4992867;28;20113;-88
2022/03/02 02:51:13;;;;;;;14.13;6.50;;;;;;;-3.00;60.83;93265.34;5008464;28;20393;-89
2022/03/02 02:54:12;;;;;;;;;;;;;;;;;;;;;
2022/03/02 02:57:10;;;;;;;;;;;;;;;;;;;;;
2022/03/02 03:02:53;;;;;;;12.07;6.20;;;;;;;-3.11;60.92;93250.47;4972758;28;20059;-88
2022/03/02 03:05:35;;;;;;;12.80;6.57;;;;;;;-3.27;61.75;93218.22;4991751;28;20093;-90
2022/03/02 03:08:11;;;;;;;16.90;7.20;;;;;;;-3.13;61.95;93247.28;5010482;28;20044;-88
2022/03/02 03:11:11;;;;;;;;;;;;;;;;;;;;;
2022/03/02 03:14:23;;;;;;;13.40;6.53;;;;;;;-3.34;62.21;93212.25;4995078;28;20383;-90
2022/03/02 03:17:14;;;;;;;15.20;6.22;;;;;;;-3.31;62.38;93218.75;4993926;28;20034;-89
2022/03/02 03:19:39;;;;;;;20.23;6.95;;;;;;;-3.14;62.89;93236.25;4994125;28;20128;-89
2022/03/02 03:22:21;;;;;;;18.88;7.10;;;;;;;-3.18;63.20;93234.25;4995510;28;20035;-88
2022/03/02 03:25:16;;;;;;;15.45;6.85;;;;;;;-3.03;63.76;93252.91;4980904;28;20125;-88
2022/03/02 03:28:03;;;;;;;15.63;7.00;;;;;;;-3.31;63.64;93198.28;4995608;28;20361;-89
2022/03/02 03:30:50;;;;;;;12.65;6.28;;;;;;;-3.38;63.62;93187.97;4990443;28;20069;-88
2022/03/02 03:33:39;;;;;;;13.45;6.35;;;;;;;-3.17;64.00;93220.47;4974561;28;20070;-89
2022/03/02 03:36:21;;;;;;;17.58;6.97;;;;;;;-3.32;64.03;93189.81;4958502;28;20054;-90
2022/03/02 03:42:13;;;;;;;18.23;7.38;;;;;;;-2.86;63.80;93263.69;4970541;28;20129;-88
2022/03/02 03:44:52;;;;;;;14.68;6.65;;;;;;;-3.29;63.84;93209.91;4993162;28;20397;-88
2022/03/02 03:47:38;;;;;;;;;;;;;;;;;;;;;
2022/03/02 03:50:20;;;;;;;11.90;5.88;;;;;;;-3.43;63.68;93185.19;4994495;28;20038;-88
2022/03/02 03:53:10;;;;;;;12.63;6.15;;;;;;;-3.11;63.74;93235.09;4993489;28;20112;-88
2022/03/02 03:55:47;;;;;;;14.68;6.25;;;;;;;-3.41;63.03;93193.47;4994395;28;20046;-88
2022/03/02 03:58:41;;;;;;;13.00;6.25;;;;;;;-3.48;63.31;93182.38;4995237;28;20052;-89
2022/03/02 04:01:23;;;;;;;14.75;5.95;;;;;;;-3.31;63.28;93209.34;4995361;28;20058;-90
2022/03/02 04:04:15;;;;;;;;;;;;;;;;;;;;;
2022/03/02 04:07:05;;;;;;;13.02;6.03;;;;;;;-3.53;63.02;93174.44;4995035;28;20038;-89
2022/03/02 04:10:05;;;;;;;13.80;6.40;;;;;;;-3.21;63.21;93212.38;4993359;28;20046;-89
2022/03/02 04:12:42;;;;;;;12.13;6.40;;;;;;;-3.17;63.58;93213.59;4993919;28;20049;-89
2022/03/02 04:15:30;;;;;;;12.85;5.60;;;;;;;-3.22;63.32;93200.56;4993773;28;20046;-89
2022/03/02 04:18:01;;;;;;;12.82;5.68;;;;;;;-3.45;63.12;93169.22;4977185;28;20034;-89
2022/03/02 04:20:44;;;;;;;;;;;;;;;;;;;;;
2022/03/02 04:23:29;;;;;;;14.15;6.55;;;;;;;-3.46;63.05;93149.72;4994208;28;20058;-88
2022/03/02 04:26:02;;;;;;;13.73;5.78;;;;;;;-3.26;62.46;93173.72;4994360;28;20533;-88
2022/03/02 04:28:29;;;;;;;13.68;6.05;;;;;;;-3.22;63.01;93182.63;4992926;28;20046;-89
2022/03/02 04:31:10;;;;;;;14.40;6.18;;;;;;;-3.50;62.93;93133.94;4991726;28;20034;-89
2022/03/02 04:34:17;;;;;;;13.48;6.15;;;;;;;-3.51;62.96;93136.66;4993404;28;20038;-88
2022/03/02 04:36:53;;;;;;;;;;;;;;;-3.03;62.73;93204.22;5008430;28;20042;-90
2022/03/02 04:39:49;;;;;;;20.30;5.55;;;;;;;-3.47;62.74;93135.31;4993611;28;19917;-90
2022/03/02 04:42:35;;;;;;;12.27;6.53;;;;;;;-3.45;62.35;93135.94;4992435;28;20065;-89
2022/03/02 04:45:04;;;;;;;17.10;5.85;;;;;;;-3.25;62.03;93182.19;4993983;28;20066;-88
2022/03/02 04:48:04;;;;;;;16.45;6.18;;;;;;;-3.32;62.36;93169.31;4992530;28;20109;-88
2022/03/02 04:50:40;;;;;;;13.82;6.28;;;;;;;-3.59;61.91;93117.91;4991659;28;20054;-89
2022/03/02 04:53:18;;;;;;;;;;;;;;;;;;;;;
2022/03/02 04:56:13;;;;;;;;;;;;;;;;;;;;;
2022/03/02 04:59:08;;;;;;;15.52;6.75;;;;;;;-3.62;63.08;93115.72;4992705;28;20053;-88
2022/03/02 05:01:49;;;;;;;13.70;6.00;;;;;;;-3.65;63.06;93105.06;4991707;28;20124;-89
2022/03/02 05:04:26;;;;;;;14.80;6.13;;;;;;;-3.39;63.19;93153.13;4975653;28;20732;-89
2022/03/02 05:09:59;;;;;;;13.93;5.72;;;;;;;-3.49;62.91;93135.53;4987165;28;20054;-88
2022/03/02 05:12:52;;;;;;;;;;;;;;;;;;;;;
2022/03/02 05:15:49;;;;;;;;;;;;;;;;;;;;;
2022/03/02 05:18:21;;;;;;;12.50;6.13;;;;;;;-3.54;62.06;93114.00;4973716;28;20135;-89
2022/03/02 05:20:54;;;;;;;12.23;5.20;;;;;;;-3.55;62.38;93110.66;4972313;28;20043;-88
2022/03/02 05:23:53;;;;;;;;;;;;;;;;;;;;;
2022/03/02 05:26:50;;;;;;;13.85;6.97;;;;;;;-3.37;62.27;93133.25;5001146;28;20181;-89
2022/03/02 05:29:57;;;;;;;12.68;5.63;;;;;;;-3.06;62.84;93175.63;4991132;28;20042;-89
2022/03/02 05:32:41;;;;;;;16.45;7.13;;;;;;;-3.62;63.18;93095.25;4990853;28;20432;-90
2022/03/02 05:35:21;;;;;;;13.70;6.20;;;;;;;-3.07;63.56;93171.50;4974808;28;20498;-89
2022/03/02 05:38:07;;;;;;;;;;;;;;;;;;;;;
2022/03/02 05:41:12;;;;;;;21.73;6.72;;;;;;;-3.44;63.56;93117.06;4990874;28;20070;-88
2022/03/02 05:44:13;;;;;;;11.63;5.75;;;;;;;-3.39;63.71;93124.97;4989587;28;20049;-88
2022/03/02 05:47:06;;;;;;;15.40;6.50;;;;;;;-3.54;63.33;93088.41;4971002;28;20031;-89
2022/03/02 05:49:48;;;;;;;12.48;5.57;;;;;;;-3.52;63.30;93089.81;4971353;28;20070;-89
2022/03/02 05:52:24;;;;;;;;;;;;;;;;;;;;;
2022/03/02 05:55:00;;;;;;;12.30;5.75;;;;;;;-3.40;62.84;93108.00;4989291;28;20077;-87
2022/03/02 05:58:04;;;;;;;14.57;5.65;;;;;;;-3.47;62.88;93086.69;4991953;28;20050;-86
2022/03/02 06:00:41;;;;;;;15.82;6.47;;;;;;;-3.50;62.57;93085.28;4987965;28;20126;-86
2022/03/02 06:03:14;;;;;;;18.80;7.47;;;;;;;-3.13;63.19;93132.03;4991380;28;20046;-86
2022/03/02 06:06:05;;;;;;;13.02;6.25;;;;;;;-3.36;63.22;93073.38;4984709;28;20046;-86
2022/03/02 06:08:37;;;;;;;14.98;6.40;;;;;;;-3.30;62.97;93088.00;4988642;28;20471;-87
2022/03/02 06:11:18;;;;;;;15.35;6.60;;;;;;;-2.77;62.57;93154.94;5006066;28;20551;-86
2022/03/02 06:13:51;;;;;;;13.25;5.85;;;;;;;-2.85;62.74;93116.66;4990387;28;20042;-86
2022/03/02 06:16:27;;;;;;;15.88;6.63;;;;;;;-2.53;61.90;93084.47;4991305;28;20034;-88
2022/03/02 06:19:00;;;;;;;15.10;6.38;;;;;;;-0.42;57.48;93090.81;4974719;28;20045;-86
2022/03/02 06:21:38;;;;;;;17.38;6.63;;;;;;;0.99;52.73;93070.88;4990574;28;20060;-86
2022/03/02 06:24:20;;;;;;;;;;;;;;;;;;;;;
2022/03/02 06:26:58;;;;;;;13.80;6.38;;;;;;;0.69;51.83;93081.84;4990154;28;20049;-86
2022/03/02 06:29:44;;;;;;;14.48;6.45;;;;;;;2.12;49.11;93092.03;4974129;28;20042;-86
2022/03/02 06:32:15;;;;;;;13.23;6.40;;;;;;;3.36;45.13;93063.66;4991518;28;20104;-86
2022/03/02 06:34:54;;;;;;;17.73;7.28;;;;;;;5.11;40.73;93062.28;4990368;28;20125;-87
2022/03/02 06:37:32;;;;;;;14.95;6.95;;;;;;;6.28;37.83;93082.97;4989747;28;20035;-87
2022/03/02 06:40:23;;;;;;;13.35;6.10;;;;;;;6.65;37.14;93049.25;4974647;28;20046;-87
2022/03/02 06:43:14;;;;;;;16.25;6.95;;;;;;;7.78;36.35;93112.50;4990168;28;20034;-87
2022/03/02 06:46:43;;;;;;;27.85;6.80;;;;;;;8.75;34.34;93058.03;4990236;28;20054;-87
2022/03/02 06:52:03;;;;;;;19.45;6.95;;;;;;;10.19;31.19;93069.75;4988406;28;20058;-87
2022/03/02 06:54:52;;;;;;;16.75;6.65;;;;;;;11.72;29.61;93088.06;4989660;28;20038;-87
2022/03/02 06:57:32;;;;;;;24.08;7.05;;;;;;;12.64;26.80;93050.22;4990215;28;20046;-87
2022/03/02 07:00:30;;;;;;;;;;;;;;;;;;;;;
2022/03/02 07:03:19;;;;;;;;;;;;;;;;;;;;;
2022/03/02 07:06:10;;;;;;;16.77;6.55;;;;;;;14.82;23.76;93041.59;4989896;28;20037;-89
2022/03/02 07:08:51;;;;;;;14.40;6.80;;;;;;;15.93;22.49;93061.03;5005091;28;20037;-87
2022/03/02 07:11:25;;;;;;;14.20;7.15;;;;;;;16.82;21.77;93056.47;4990110;28;20038;-88
2022/03/02 07:14:12;;;;;;;13.50;7.00;;;;;;;17.37;20.39;93046.31;4989832;28;20049;-88
2022/03/02 07:16:51;;;;;;;13.40;7.60;;;;;;;18.06;19.80;93069.97;4972131;28;20494;-87
2022/03/02 07:19:17;;;;;;;17.77;8.00;;;;;;;18.92;18.84;93075.91;4972599;28;20086;-86
2022/03/02 07:21:50;;;;;;;16.83;6.93;;;;;;;19.32;18.47;93032.97;4990858;28;20057;-87
2022/03/02 07:24:32;;;;;;;13.95;7.82;;;;;;;20.17;17.59;93058.16;4991399;28;20034;-87
2022/03/02 07:27:00;;;;;;;14.70;7.57;;;;;;;20.73;17.40;93062.13;4993987;28;20056;-87
2022/03/02 07:29:28;;;;;;;15.40;7.32;;;;;;;21.32;16.54;93045.56;4981584;28;20034;-88
2022/03/02 07:31:57;;;;;;;14.32;7.80;;;;;;;21.50;16.74;93056.69;4991666;28;20045;-87
2022/03/02 07:34:28;;;;;;;14.35;7.60;;;;;;;20.66;17.04;93052.06;4992342;28;20038;-85
2022/03/02 07:36:56;;;;;;;16.73;7.50;;;;;;;21.16;16.08;93052.72;4993427;28;20030;-87
2022/03/02 07:39:25;;;;;;;13.95;7.38;;;;;;;22.38;15.20;93069.19;4992313;28;20023;-86
2022/03/02 07:41:51;;;;;;;15.60;7.70;;;;;;;22.36;14.90;93050.09;5009322;28;20113;-87
2022/03/02 07:44:19;;;;;;;17.38;8.20;;;;;;;22.08;15.35;93088.25;4992496;28;20519;-86
2022/03/02 07:46:49;;;;;;;15.23;7.72;;;;;;;20.88;16.18;93021.53;4993853;28;20097;-86
2022/03/02 07:49:20;;;;;;;14.15;7.57;;;;;;;18.84;17.93;93028.22;4993317;28;20032;-85
2022/03/02 07:51:48;;;;;;;15.70;7.93;;;;;;;17.06;20.11;93079.78;4994178;28;20034;-85
2022/03/02 07:54:16;;;;;;;13.77;7.45;;;;;;;15.71;20.94;93087.50;4994289;28;20134;-89
2022/03/02 07:56:45;;;;;;;17.58;8.43;;;;;;;14.40;22.94;93075.91;4989467;28;20027;-85
2022/03/02 07:59:11;;;;;;;13.38;7.57;;;;;;;13.46;24.77;93085.00;4976915;28;20137;-85
2022/03/02 08:01:38;;;;;;;17.85;7.97;;;;;;;12.50;25.78;93071.19;4993369;28;20109;-86
2022/03/02 08:04:08;;;;;;;18.27;8.40;;;;;;;11.07;27.59;93062.16;4992068;28;20030;-86
2022/03/02 08:06:36;;;;;;;17.40;8.10;;;;;;;11.05;28.39;93011.88;4991196;28;20047;-86
2022/03/02 08:09:06;;;;;;;16.88;9.00;;;;;;;11.06;28.97;93084.19;4993331;28;20046;-85
2022/03/02 08:11:34;;;;;;;15.57;7.47;;;;;;;9.58;30.16;93062.91;4988009;28;20050;-87
2022/03/02 08:14:01;;;;;;;15.40;7.95;;;;;;;8.80;31.75;93071.06;4990443;28;20045;-86
2022/03/02 08:16:28;;;;;;;14.07;7.53;;;;;;;8.93;31.02;93078.38;4973955;28;20117;-85
2022/03/02 08:18:55;;;;;;;15.77;7.55;;;;;;;8.59;32.12;93082.53;4990577;28;20046;-85
2022/03/02 08:21:21;;;;;;;14.95;7.90;;;;;;;7.43;35.03;93079.97;4993160;28;20416;-86
2022/03/02 08:23:49;;;;;;;16.80;7.90;;;;;;;8.18;33.63;93064.94;5009362;28;20042;-85
2022/03/02 08:26:19;;;;;;;15.95;7.80;;;;;;;8.97;32.49;93078.66;4993030;28;20039;-85
2022/03/02 08:28:45;;;;;;;20.73;8.20;;;;;;;8.83;32.87;93052.28;4993174;28;20034;-86
2022/03/02 08:31:12;;;;;;;17.70;8.35;;;;;;;8.26;33.61;93061.03;4960856;28;20046;-85
2022/03/02 08:33:40;;;;;;;18.98;8.32;;;;;;;7.78;34.76;93065.59;4992930;28;20534;-85
2022/03/02 08:36:09;;;;;;;20.25;8.68;;;;;;;8.52;34.37;93072.34;4993149;28;20045;-85
2022/03/02 08:38:40;;;;;;;17.20;8.07;;;;;;;8.40;34.27;93076.97;4976552;28;20046;-85
2022/03/02 08:41:07;;;;;;;18.83;7.60;;;;;;;8.34;34.26;93065.75;4993074;28;20061;-89
2022/03/02 08:43:37;;;;;;;17.98;8.40;;;;;;;8.60;34.21;93065.84;4992836;28;20042;-86
2022/03/02 08:46:04;;;;;;;16.75;7.80;;;;;;;8.93;33.54;93060.09;4992389;28;20030;-86
2022/03/02 08:48:29;;;;;;;20.08;8.38;;;;;;;9.25;32.61;93061.66;4976613;28;20377;-86
2022/03/02 08:50:57;;;;;;;15.75;7.35;;;;;;;8.29;33.57;93048.28;4993139;28;20046;-86
2022/03/02 08:53:24;;;;;;;15.73;7.70;;;;;;;7.12;36.79;93066.78;4976611;28;20051;-85
2022/03/02 08:55:53;;;;;;;17.30;7.38;;;;;;;7.46;35.48;93050.84;4961050;28;20038;-86
2022/03/02 08:58:18;;;;;;;16.15;7.40;;;;;;;7.22;36.16;93035.59;4992974;28;20034;-89
2022/03/02 09:00:44;;;;;;;18.38;8.27;;;;;;;7.47;35.60;93037.53;4993167;28;20060;-85
2022/03/02 09:03:14;;;;;;;15.48;7.38;;;;;;;7.81;35.51;93044.22;4977066;28;20039;-85
2022/03/02 09:05:42;;;;;;;19.73;8.68;;;;;;;8.14;34.41;93059.44;4993477;28;20579;-85
2022/03/02 09:08:08;;;;;;;20.58;7.53;;;;;;;7.87;34.27;93043.97;4994048;28;20038;-86
2022/03/02 09:10:35;;;;;;;16.45;7.72;;;;;;;7.44;35.73;93029.47;4976743;28;20444;-86
2022/03/02 09:13:02;;;;;;;14.75;7.50;;;;;;;7.92;35.01;93040.59;4960366;28;20049;-85
2022/03/02 09:15:28;;;;;;;13.32;7.45;;;;;;;9.00;34.20;93036.34;4976159;28;20026;-85
2022/03/02 09:17:55;;;;;;;16.58;7.45;;;;;;;8.53;33.50;93042.59;4958960;28;20054;-85
2022/03/02 09:20:25;;;;;;;16.55;8.13;;;;;;;7.83;35.75;93023.91;4993321;28;20038;-87
2022/03/02 09:22:51;;;;;;;18.30;7.43;;;;;;;8.06;35.09;93028.69;4992472;28;20125;-85
2022/03/02 09:25:18;;;;;;;17.50;7.53;;;;;;;8.44;34.41;93037.09;4960273;28;20388;-85
2022/03/02 09:27:46;;;;;;;15.05;7.53;;;;;;;8.87;32.57;93029.84;4975940;28;20050;-86
2022/03/02 09:30:12;;;;;;;19.75;7.28;;;;;;;8.33;33.97;93038.91;4960714;28;20061;-85
2022/03/02 09:32:42;;;;;;;15.40;7.47;;;;;;;7.96;34.68;93010.38;4976199;28;20439;-86
2022/03/02 09:35:18;;;;;;;18.45;8.32;;;;;;;8.26;34.36;93014.09;4992278;28;20125;-85
2022/03/02 09:37:49;;;;;;;21.13;8.40;;;;;;;8.27;34.79;93015.69;4976479;28;20141;-85
2022/03/02 09:40:29;;;;;;;14.57;7.45;;;;;;;7.84;34.72;93000.19;4992499;28;20125;-85
2022/03/02 09:43:05;;;;;;;15.15;7.30;;;;;;;7.90;33.65;92982.72;4992030;28;20116;-86
2022/03/02 09:45:32;;;;;;;16.33;7.85;;;;;;;8.25;33.79;93007.31;4975660;28;20048;-85
2022/03/02 09:48:00;;;;;;;20.27;7.63;;;;;;;8.00;34.71;92990.59;4976251;28;20036;-85
2022/03/02 09:50:33;;;;;;;20.65;7.13;;;;;;;7.93;34.62;93010.91;4993509;28;20499;-85
2022/03/02 09:53:03;;;;;;;;;;;;;;;8.48;33.98;93004.25;4993703;28;20037;-85
2022/03/02 09:55:29;;;;;;;14.68;7.13;;;;;;;8.60;33.81;92995.38;4991640;28;19914;-85
2022/03/02 09:57:58;;;;;;;13.32;6.75;;;;;;;7.57;35.02;93008.16;4991921;28;20041;-86
2022/03/02 10:00:26;;;;;;;15.55;7.40;;;;;;;7.12;35.62;92975.66;4975941;28;20042;-89
2022/03/02 10:02:55;;;;;;;15.40;7.07;;;;;;;7.95;34.30;92971.53;4991902;28;20038;-87
2022/03/02 10:05:27;;;;;;;14.65;6.80;;;;;;;8.07;34.39;92985.91;4992011;28;20037;-85
2022/03/02 10:07:57;;;;;;;;;;;;;;;8.04;35.26;92993.47;4976308;28;20046;-85
2022/03/02 10:10:25;;;;;;;14.73;6.45;;;;;;;8.36;33.75;92982.03;4991709;28;19921;-87
2022/03/02 10:12:51;;;;;;;15.63;7.32;;;;;;;8.57;33.21;92965.38;4976045;28;20118;-85
2022/03/02 10:15:19;;;;;;;13.20;6.78;;;;;;;8.50;32.37;92963.03;4959572;28;20046;-86
2022/03/02 10:17:48;;;;;;;16.23;7.15;;;;;;;8.14;33.46;92970.00;5007679;28;20046;-85
2022/03/02 10:20:24;;;;;;;13.70;6.90;;;;;;;8.30;32.76;92984.63;5007931;28;20503;-86
2022/03/02 10:23:22;;;;;;;13.88;6.88;;;;;;;7.74;32.44;92981.91;4992007;28;20042;-87
2022/03/02 10:25:51;;;;;;;19.70;6.22;;;;;;;8.11;31.76;92984.34;4998907;28;20047;-87
2022/03/02 10:28:24;;;;;;;13.68;6.00;;;;;;;7.75;33.89;92990.53;4981213;28;20671;-86
2022/03/02 10:31:22;;;;;;;18.30;7.70;;;;;;;7.86;34.11;92976.47;4967750;28;20096;-86
2022/03/02 10:33:54;;;;;;;13.27;6.10;;;;;;;7.69;35.30;92974.84;4973201;28;20090;-86
2022/03/02 10:36:23;;;;;;;12.73;6.45;;;;;;;6.81;35.46;92972.88;5006318;28;20458;-86
2022/03/02 10:38:49;;;;;;;14.90;6.80;;;;;;;7.82;33.26;92970.22;5007337;28;20065;-87
2022/03/02 10:41:19;;;;;;;16.35;7.57;;;;;;;7.28;35.37;92953.84;4991462;28;20641;-87
2022/03/02 10:43:56;;;;;;;15.70;7.10;;;;;;;7.96;34.25;92953.03;4992128;28;20045;-87
2022/03/02 10:46:23;;;;;;;21.88;8.25;;;;;;;8.18;34.44;92970.28;4991536;28;20046;-87
2022/03/02 10:49:03;;;;;;;17.17;7.50;;;;;;;7.48;34.99;92968.00;4991468;28;20353;-85
2022/03/02 10:51:32;;;;;;;12.77;6.20;;;;;;;7.64;34.32;92963.63;4991278;28;20049;-86
2022/03/02 10:54:03;;;;;;;19.27;7.35;;;;;;;7.41;35.08;92944.03;4975536;28;20072;-87
2022/03/02 10:56:35;;;;;;;18.63;7.88;;;;;;;7.39;35.42;92965.09;4976905;28;20540;-86
2022/03/02 10:59:02;;;;;;;14.20;7.07;;;;;;;7.29;34.41;92939.81;4976488;28;20043;-86
2022/03/02 11:01:27;;;;;;;20.02;7.47;;;;;;;7.78;33.42;92933.44;4973893;28;20031;-87
2022/03/02 11:03:54;;;;;;;14.45;6.80;;;;;;;7.95;32.80;92933.22;4978541;28;20479;-87
2022/03/02 11:06:22;;;;;;;14.30;6.63;;;;;;;7.29;34.20;92942.41;4991481;28;20054;-86
2022/03/02 11:08:49;;;;;;;9.10;5.03;;;;;;;7.09;33.93;92919.69;4990076;28;20031;-85
2022/03/02 11:11:14;;;;;;;14.75;6.68;;;;;;;7.15;33.26;92933.47;4980247;28;20120;-85
2022/03/02 11:13:40;;;;;;;12.25;5.72;;;;;;;7.61;32.18;92936.28;5001337;28;20421;-85
2022/03/02 11:16:07;;;;;;;13.18;6.15;;;;;;;7.83;31.22;92902.16;4995506;28;20433;-85
2022/03/02 11:18:32;;;;;;;12.02;5.65;;;;;;;7.44;31.30;92914.84;4977214;28;20137;-86
2022/03/02 11:20:58;;;;;;;12.48;5.60;;;;;;;7.47;30.28;92924.75;5010104;28;20109;-86
2022/03/02 11:23:24;;;;;;;10.07;5.25;;;;;;;7.71;29.73;92894.59;4978599;28;20030;-86
2022/03/02 11:25:52;;;;;;;12.65;5.32;;;;;;;8.07;29.11;92912.88;4995017;28;20062;-86
2022/03/02 11:28:20;;;;;;;10.82;5.45;;;;;;;7.82;27.97;92902.44;4994660;28;20069;-86
2022/03/02 11:30:51;;;;;;;12.57;5.85;;;;;;;7.75;27.37;92889.66;4991590;28;20042;-85
2022/03/02 11:33:21;;;;;;;14.02;6.28;;;;;;;7.44;28.24;92899.22;4994472;28;20046;-86
2022/03/02 11:35:47;;;;;;;13.15;6.25;;;;;;;7.61;30.44;92888.56;4994002;28;20041;-87
2022/03/02 11:38:19;;;;;;;12.10;5.32;;;;;;;7.13;28.02;92877.50;4978594;28;20041;-87
2022/03/02 11:40:47;;;;;;;10.97;5.37;;;;;;;7.70;27.61;92893.03;4991029;28;20173;-86
2022/03/02 11:43:20;;;;;;;12.23;6.15;;;;;;;7.47;30.13;92873.44;4958837;28;20290;-86
2022/03/02 11:45:45;;;;;;;;;;;;;;;8.12;30.10;92886.03;4958733;28;20069;-89
2022/03/02 11:48:14;;;;;;;10.68;4.75;;;;;;;8.14;28.93;92865.69;4976425;28;20383;-86
2022/03/02 11:51:09;;;;;;;13.02;5.22;;;;;;;7.78;28.27;92881.31;4976631;28;20050;-86
2022/03/02 11:53:52;;;;;;;10.45;4.20;;;;;;;7.80;29.06;92870.63;4976263;28;20504;-88
2022/03/02 11:56:19;;;;;;;13.48;6.43;;;;;;;7.95;30.14;92873.28;4990104;28;20500;-88
2022/03/02 11:59:03;;;;;;;12.25;6.18;;;;;;;8.06;28.61;92851.38;4984504;28;20046;-86
2022/03/02 12:01:45;;;;;;;10.40;5.32;;;;;;;8.08;27.13;92854.50;5009549;28;20042;-86
2022/03/02 12:04:14;;;;;;;12.93;6.10;;;;;;;8.29;25.29;92846.66;4994241;28;20133;-85
2022/03/02 12:06:50;;;;;;;10.05;4.10;;;;;;;7.64;25.60;92852.38;4993114;28;20062;-86
2022/03/02 12:09:38;;;;;;;9.80;5.60;;;;;;;7.66;27.08;92842.47;4994610;28;20058;-86
2022/03/02 12:12:19;;;;;;;12.40;6.10;;;;;;;8.50;25.27;92848.22;4993608;28;20038;-84
2022/03/02 12:14:44;;;;;;;8.45;4.03;;;;;;;8.09;23.75;92832.59;4993432;28;20034;-86
2022/03/02 12:17:15;;;;;;;9.10;4.38;;;;;;;8.40;23.78;92827.38;4990296;28;20358;-86
2022/03/02 12:19:45;;;;;;;10.60;5.22;;;;;;;8.65;24.92;92823.16;4978304;28;20052;-85
2022/03/02 12:22:13;;;;;;;11.68;4.88;;;;;;;8.89;24.23;92823.31;4977562;28;20041;-86
2022/03/02 12:24:38;;;;;;;9.02;4.90;;;;;;;8.41;22.84;92815.88;4993401;28;20057;-86
2022/03/02 12:27:10;;;;;;;13.10;6.10;;;;;;;8.31;24.80;92802.84;4979954;28;20401;-87
2022/03/02 12:29:43;;;;;;;11.57;5.45;;;;;;;8.76;25.41;92798.59;4989734;28;20044;-88
2022/03/02 12:32:16;;;;;;;11.40;5.47;;;;;;;8.64;26.12;92821.56;4993540;28;20038;-87
2022/03/02 12:34:46;;;;;;;;;;;;;;;9.33;24.57;92812.94;4974425;28;20062;-87
2022/03/02 12:37:12;;;;;;;9.52;4.80;;;;;;;8.54;24.09;92817.94;4981377;28;19940;-86
2022/03/02 12:39:40;;;;;;;10.07;4.90;;;;;;;8.47;24.99;92811.44;4993737;28;20046;-85
2022/03/02 12:42:09;;;;;;;12.18;5.22;;;;;;;8.59;24.49;92805.94;4992613;28;20111;-86
2022/03/02 12:45:18;;;;;;;12.73;5.80;;;;;;;8.59;25.03;92772.00;4990150;28;20042;-86
2022/03/02 12:48:04;;;;;;;10.38;5.45;;;;;;;8.21;24.54;92732.44;4975994;28;20117;-86
2022/03/02 12:50:56;;;;;;;15.32;6.60;;;;;;;8.93;23.96;92732.97;4997489;28;20034;-87
2022/03/02 12:58:00;;;;;;;11.15;6.07;;;;;;;9.46;25.16;92776.81;4981126;28;20824;-87
2022/03/02 13:12:16;;;;;;;15.90;6.50;;;;;;;8.09;25.82;92730.13;4971915;28;20052;-87
2022/03/02 13:14:48;;;;;;;14.88;7.43;;;;;;;8.78;26.62;92764.34;4993273;28;20046;-86
2022/03/02 13:29:09;;;;;;;16.33;6.90;;;;;;;8.83;25.76;92741.63;4905011;28;20047;-87
2022/03/02 13:31:59;;;;;;;13.98;6.22;;;;;;;8.25;26.62;92671.66;4903605;28;20040;-87
2022/03/02 13:34:33;;;;;;;13.13;6.03;;;;;;;7.84;26.79;92677.00;4947592;28;20039;-86
2022/03/02 13:37:22;;;;;;;13.15;6.18;;;;;;;8.25;26.90;92681.31;4944263;28;20081;-87
2022/03/02 13:40:25;;;;;;;13.53;6.23;;;;;;;8.43;26.23;92706.06;4991013;28;20044;-87
2022/03/02 13:43:00;;;;;;;14.38;7.10;;;;;;;8.80;25.46;92676.91;4974603;28;20080;-86
2022/03/02 13:45:36;;;;;;;14.70;6.75;;;;;;;8.69;26.07;92678.00;4986767;28;20046;-86
2022/03/02 13:48:42;;;;;;;17.80;6.35;;;;;;;8.52;26.65;92686.97;4978475;28;20046;-86
2022/03/02 13:51:54;;;;;;;15.15;6.65;;;;;;;8.96;27.95;92696.66;4992160;28;20039;-86
2022/03/02 13:54:29;;;;;;;25.30;7.18;;;;;;;8.45;27.21;92649.94;4975756;28;20039;-87